Time;durP1;ratioP1;P1;durP2;ratioP2;P2;SDS_P1;SDS_P2;PMS_P1;PMS_P2;Temp;Humidity;BMP_temperature;BMP_pressure;BME280_temperature;BME280_humidity;BME280_pressure;Samples;Min_cycle;Max_cycle;Signal;HPM_P1;HPM_P2
2022/09/10 00:01:27;;;;;;;;;;;21.50;54.30;;;;;;476651;250;1052;-74
2022/09/10 00:03:28;;;;;;;;;;;21.40;54.30;;;;;;476648;250;1274;-73
2022/09/10 00:05:30;;;;;;;;;;;21.40;54.40;;;;;;476891;250;1092;-73
2022/09/10 00:07:31;;;;;;;;;;;21.40;54.30;;;;;;476639;250;2199;-73
2022/09/10 00:09:32;;;;;;;;;;;21.40;54.20;;;;;;476911;250;1076;-73
2022/09/10 00:11:34;;;;;;;;;;;21.40;54.10;;;;;;476652;250;1212;-73
2022/09/10 00:13:36;;;;;;;;;;;21.50;54.00;;;;;;476712;250;1137;-73
2022/09/10 00:15:36;;;;;;;;;;;21.40;54.10;;;;;;476638;250;1485;-73
2022/09/10 00:17:38;;;;;;;;;;;21.40;54.30;;;;;;477097;250;1201;-73
2022/09/10 00:19:39;;;;;;;;;;;21.40;54.30;;;;;;476820;250;1116;-73
2022/09/10 00:21:41;;;;;;;;;;;21.40;54.20;;;;;;476688;250;1075;-73
2022/09/10 00:23:44;;;;;;;;;;;21.40;54.10;;;;;;476689;250;1355;-73
2022/09/10 00:25:44;;;;;;;;;;;21.30;54.20;;;;;;476529;250;1465;-73
2022/09/10 00:27:45;;;;;;;;;;;21.30;54.30;;;;;;476835;250;2163;-73
2022/09/10 00:29:47;;;;;;;;;;;21.20;54.30;;;;;;477013;250;1095;-73
2022/09/10 00:31:49;;;;;;;;;;;21.30;54.20;;;;;;476743;250;1128;-73
2022/09/10 00:33:49;;;;;;;;;;;21.40;54.00;;;;;;476783;250;1210;-73
2022/09/10 00:35:51;;;;;;;;;;;21.50;53.80;;;;;;476650;250;1126;-73
2022/09/10 00:37:52;;;;;;;;;;;21.60;53.50;;;;;;476856;250;1108;-73
2022/09/10 00:39:55;;;;;;;;;;;21.60;53.30;;;;;;476837;250;1198;-73
2022/09/10 00:41:56;;;;;;;;;;;21.60;53.30;;;;;;476673;250;1140;-73
2022/09/10 00:43:57;;;;;;;;;;;21.60;53.30;;;;;;476663;250;1402;-73
2022/09/10 00:45:58;;;;;;;;;;;21.60;53.20;;;;;;476664;250;1222;-73
2022/09/10 00:47:59;;;;;;;;;;;21.60;53.20;;;;;;476765;250;2157;-73
2022/09/10 00:50:01;;;;;;;;;;;21.60;53.10;;;;;;476679;250;1100;-73
2022/09/10 00:52:02;;;;;;;;;;;21.70;53.00;;;;;;476897;250;1163;-73
2022/09/10 00:54:04;;;;;;;;;;;21.70;52.80;;;;;;476734;250;1142;-73
2022/09/10 00:56:06;;;;;;;;;;;21.70;52.80;;;;;;476841;250;1185;-73
2022/09/10 00:58:06;;;;;;;;;;;21.70;52.90;;;;;;476561;250;1441;-73
2022/09/10 01:00:08;;;;;;;;;;;21.70;52.90;;;;;;476799;250;1135;-73
2022/09/10 01:02:09;;;;;;;;;;;21.70;52.80;;;;;;476646;250;1353;-73
2022/09/10 01:04:10;;;;;;;;;;;21.70;52.80;;;;;;476678;250;1023;-73
2022/09/10 01:06:12;;;;;;;;;;;21.60;52.90;;;;;;476776;250;1103;-73
2022/09/10 01:08:13;;;;;;;;;;;21.60;52.90;;;;;;477070;250;2195;-73
2022/09/10 01:10:14;;;;;;;;;;;21.50;53.10;;;;;;476795;250;1093;-73
2022/09/10 01:12:16;;;;;;;;;;;21.50;53.10;;;;;;476689;250;1677;-73
2022/09/10 01:14:17;;;;;;;;;;;21.50;53.10;;;;;;476698;250;1044;-73
2022/09/10 01:16:18;;;;;;;;;;;21.50;53.30;;;;;;476867;250;1111;-74
2022/09/10 01:18:20;;;;;;;;;;;21.50;53.20;;;;;;476815;250;1120;-74
2022/09/10 01:20:21;;;;;;;;;;;21.40;53.10;;;;;;476887;250;1163;-73
2022/09/10 01:22:22;;;;;;;;;;;21.50;53.10;;;;;;476816;250;1023;-73
2022/09/10 01:24:24;;;;;;;;;;;21.40;53.10;;;;;;476662;250;1120;-73
2022/09/10 01:26:25;;;;;;;;;;;21.40;53.20;;;;;;477114;250;1148;-73
2022/09/10 01:28:26;;;;;;;;;;;21.30;53.30;;;;;;476630;250;2220;-73
2022/09/10 01:30:28;;;;;;;;;;;21.40;53.30;;;;;;476653;250;1233;-73
2022/09/10 01:32:29;;;;;;;;;;;21.40;53.20;;;;;;476681;250;1180;-73
2022/09/10 01:34:31;;;;;;;;;;;21.40;53.10;;;;;;476661;250;1110;-73
2022/09/10 01:36:32;;;;;;;;;;;21.40;53.20;;;;;;476695;250;1385;-73
2022/09/10 01:38:34;;;;;;;;;;;21.50;53.10;;;;;;476674;250;1510;-73
2022/09/10 01:40:35;;;;;;;;;;;21.40;53.10;;;;;;476767;250;1455;-73
2022/09/10 01:42:36;;;;;;;;;;;21.30;53.30;;;;;;476830;250;1408;-73
2022/09/10 01:44:38;;;;;;;;;;;21.30;53.40;;;;;;476636;250;1235;-73
2022/09/10 01:46:40;;;;;;;;;;;21.30;53.40;;;;;;476641;250;1334;-73
2022/09/10 01:48:41;;;;;;;;;;;21.30;53.40;;;;;;476537;250;2207;-73
2022/09/10 01:50:41;;;;;;;;;;;21.40;53.30;;;;;;476556;246;1499;-73
2022/09/10 01:52:43;;;;;;;;;;;21.40;53.20;;;;;;476731;250;1244;-73
2022/09/10 01:54:44;;;;;;;;;;;21.40;53.20;;;;;;476820;250;1176;-73
2022/09/10 01:56:45;;;;;;;;;;;21.40;53.20;;;;;;476637;250;1250;-73
2022/09/10 01:58:47;;;;;;;;;;;21.40;53.20;;;;;;476711;250;1286;-73
2022/09/10 02:00:48;;;;;;;;;;;21.40;53.20;;;;;;476883;250;1153;-73
2022/09/10 02:02:50;;;;;;;;;;;21.40;53.20;;;;;;476992;250;1264;-73
2022/09/10 02:04:51;;;;;;;;;;;21.30;53.30;;;;;;476865;250;1104;-73
2022/09/10 02:06:52;;;;;;;;;;;21.30;53.50;;;;;;476743;250;1223;-73
2022/09/10 02:08:55;;;;;;;;;;;21.30;53.50;;;;;;476677;250;2164;-73
2022/09/10 02:10:55;;;;;;;;;;;21.40;53.40;;;;;;476807;250;1362;-73
2022/09/10 02:12:56;;;;;;;;;;;21.40;53.20;;;;;;476642;250;1141;-73
2022/09/10 02:14:58;;;;;;;;;;;21.40;53.30;;;;;;476670;250;1142;-73
2022/09/10 02:16:59;;;;;;;;;;;21.40;53.20;;;;;;476773;250;1096;-73
2022/09/10 02:19:00;;;;;;;;;;;21.40;53.10;;;;;;477128;250;1245;-73
2022/09/10 02:21:02;;;;;;;;;;;21.40;53.00;;;;;;476671;250;1108;-73
2022/09/10 02:23:03;;;;;;;;;;;21.40;53.10;;;;;;476792;250;1579;-73
2022/09/10 02:25:05;;;;;;;;;;;21.40;53.20;;;;;;476636;250;1152;-73
2022/09/10 02:27:06;;;;;;;;;;;21.50;53.00;;;;;;476790;250;1190;-73
2022/09/10 02:29:07;;;;;;;;;;;21.40;52.80;;;;;;476781;250;2176;-73
2022/09/10 02:31:09;;;;;;;;;;;21.40;53.00;;;;;;476938;250;1286;-73
2022/09/10 02:33:10;;;;;;;;;;;21.50;52.90;;;;;;476751;250;1376;-73
2022/09/10 02:35:14;;;;;;;;;;;21.50;52.90;;;;;;476700;250;1124;-73
2022/09/10 02:37:13;;;;;;;;;;;21.50;52.90;;;;;;476593;250;1420;-73
2022/09/10 02:39:14;;;;;;;;;;;21.50;52.80;;;;;;476730;250;1177;-73
2022/09/10 02:41:15;;;;;;;;;;;21.50;52.80;;;;;;476783;250;1185;-73
2022/09/10 02:43:17;;;;;;;;;;;21.50;52.80;;;;;;476935;250;1216;-73
2022/09/10 02:45:18;;;;;;;;;;;21.50;52.70;;;;;;476895;250;1362;-73
2022/09/10 02:47:19;;;;;;;;;;;21.50;52.80;;;;;;476684;250;1141;-73
2022/09/10 02:49:21;;;;;;;;;;;21.50;52.70;;;;;;476619;250;2195;-73
2022/09/10 02:51:22;;;;;;;;;;;21.60;52.60;;;;;;476689;250;1245;-73
2022/09/10 02:53:24;;;;;;;;;;;21.50;52.50;;;;;;477103;250;1156;-73
2022/09/10 02:55:25;;;;;;;;;;;21.50;52.60;;;;;;476848;250;1675;-73
2022/09/10 02:57:26;;;;;;;;;;;21.50;52.80;;;;;;476798;250;1255;-73
2022/09/10 02:59:28;;;;;;;;;;;21.50;52.70;;;;;;476666;250;1259;-73
2022/09/10 03:01:29;;;;;;;;;;;21.50;52.80;;;;;;476749;250;1169;-73
2022/09/10 03:03:30;;;;;;;;;;;21.40;53.00;;;;;;477106;250;1163;-73
2022/09/10 03:05:32;;;;;;;;;;;21.30;53.00;;;;;;476682;250;1130;-73
2022/09/10 03:07:33;;;;;;;;;;;21.40;53.00;;;;;;476734;250;1256;-73
2022/09/10 03:09:35;;;;;;;;;;;21.40;53.00;;;;;;476648;250;2203;-73
2022/09/10 03:11:38;;;;;;;;;;;21.40;52.90;;;;;;476846;250;1157;-73
2022/09/10 03:13:39;;;;;;;;;;;21.40;52.90;;;;;;476501;250;1550;-73
2022/09/10 03:15:40;;;;;;;;;;;21.40;52.80;;;;;;476668;250;1615;-73
2022/09/10 03:17:41;;;;;;;;;;;21.50;52.60;;;;;;476603;250;1210;-73
2022/09/10 03:19:43;;;;;;;;;;;21.50;52.60;;;;;;476656;250;1201;-73
2022/09/10 03:21:46;;;;;;;;;;;21.50;52.50;;;;;;476695;250;1223;-73
2022/09/10 03:23:45;;;;;;;;;;;21.60;52.50;;;;;;476539;250;1399;-73
2022/09/10 03:25:47;;;;;;;;;;;21.60;52.50;;;;;;477003;250;1243;-73
2022/09/10 03:27:48;;;;;;;;;;;21.70;52.30;;;;;;476651;250;1122;-73
2022/09/10 03:29:49;;;;;;;;;;;21.70;52.20;;;;;;476825;250;2207;-73
2022/09/10 03:31:51;;;;;;;;;;;21.70;52.20;;;;;;476672;250;1241;-73
2022/09/10 03:33:52;;;;;;;;;;;21.70;52.20;;;;;;476816;250;1181;-73
2022/09/10 03:35:53;;;;;;;;;;;21.70;52.20;;;;;;476704;250;1285;-74
2022/09/10 03:37:55;;;;;;;;;;;21.60;52.20;;;;;;476662;250;1206;-73
2022/09/10 03:39:56;;;;;;;;;;;21.60;52.30;;;;;;476621;250;1172;-73
2022/09/10 03:41:58;;;;;;;;;;;21.70;52.30;;;;;;476634;250;1115;-73
2022/09/10 03:43:59;;;;;;;;;;;21.70;52.30;;;;;;476583;250;1241;-74
2022/09/10 03:46:01;;;;;;;;;;;21.70;52.20;;;;;;476903;250;1117;-73
2022/09/10 03:48:02;;;;;;;;;;;21.80;52.20;;;;;;476682;250;1338;-73
2022/09/10 03:50:04;;;;;;;;;;;21.70;52.10;;;;;;476914;250;2192;-73
2022/09/10 03:52:05;;;;;;;;;;;21.70;52.00;;;;;;476635;250;1288;-73
2022/09/10 03:54:06;;;;;;;;;;;21.80;52.00;;;;;;476661;250;1341;-73
2022/09/10 03:56:08;;;;;;;;;;;21.80;52.00;;;;;;476634;250;1149;-73
2022/09/10 03:58:09;;;;;;;;;;;21.80;52.00;;;;;;476851;250;1251;-73
2022/09/10 04:00:11;;;;;;;;;;;21.70;52.10;;;;;;476775;250;1126;-73
2022/09/10 04:02:13;;;;;;;;;;;21.70;52.10;;;;;;476714;250;1195;-73
2022/09/10 04:04:14;;;;;;;;;;;21.70;52.00;;;;;;476637;250;1195;-73
2022/09/10 04:06:15;;;;;;;;;;;21.70;52.10;;;;;;476958;250;1125;-73
2022/09/10 04:08:17;;;;;;;;;;;21.70;52.10;;;;;;476893;250;1187;-73
2022/09/10 04:10:19;;;;;;;;;;;21.80;52.00;;;;;;476630;250;2195;-73
2022/09/10 04:12:19;;;;;;;;;;;21.80;51.90;;;;;;476650;250;1414;-73
2022/09/10 04:14:21;;;;;;;;;;;21.70;52.00;;;;;;476661;250;1152;-73
2022/09/10 04:16:22;;;;;;;;;;;21.80;51.90;;;;;;476647;250;1377;-73
2022/09/10 04:18:26;;;;;;;;;;;21.80;51.80;;;;;;476706;250;1221;-73
2022/09/10 04:20:25;;;;;;;;;;;21.80;51.70;;;;;;476477;250;1587;-73
2022/09/10 04:22:27;;;;;;;;;;;21.80;51.70;;;;;;476629;250;1143;-73
2022/09/10 04:24:28;;;;;;;;;;;21.80;51.60;;;;;;476700;250;1231;-73
2022/09/10 04:26:29;;;;;;;;;;;21.90;51.60;;;;;;476660;250;1153;-73
2022/09/10 04:28:30;;;;;;;;;;;21.90;51.60;;;;;;476712;250;1110;-73
2022/09/10 04:30:32;;;;;;;;;;;21.90;51.60;;;;;;476727;250;2207;-73
2022/09/10 04:32:33;;;;;;;;;;;21.90;51.60;;;;;;476665;250;1228;-73
2022/09/10 04:34:34;;;;;;;;;;;21.90;51.60;;;;;;476964;250;1117;-74
2022/09/10 04:36:36;;;;;;;;;;;21.90;51.60;;;;;;476670;250;1115;-73
2022/09/10 04:38:39;;;;;;;;;;;21.80;51.70;;;;;;476637;250;1186;-73
2022/09/10 04:40:39;;;;;;;;;;;21.80;51.70;;;;;;476605;250;1433;-73
2022/09/10 04:42:40;;;;;;;;;;;21.80;51.60;;;;;;476666;250;1179;-73
2022/09/10 04:44:41;;;;;;;;;;;21.90;51.60;;;;;;476650;250;1095;-73
2022/09/10 04:46:43;;;;;;;;;;;21.90;51.60;;;;;;476608;250;1183;-73
2022/09/10 04:48:44;;;;;;;;;;;21.90;51.60;;;;;;476652;250;1331;-73
2022/09/10 04:50:45;;;;;;;;;;;21.80;51.60;;;;;;476999;250;2156;-73
2022/09/10 04:52:47;;;;;;;;;;;21.90;51.60;;;;;;476635;250;1236;-73
2022/09/10 04:54:48;;;;;;;;;;;21.80;51.60;;;;;;476656;250;1347;-73
2022/09/10 04:56:51;;;;;;;;;;;21.80;51.60;;;;;;476740;250;1252;-73
2022/09/10 04:58:51;;;;;;;;;;;21.80;51.60;;;;;;476635;250;1436;-73
2022/09/10 05:00:55;;;;;;;;;;;21.80;51.60;;;;;;476606;250;1184;-73
2022/09/10 05:02:53;;;;;;;;;;;21.80;51.60;;;;;;476443;250;2080;-73
2022/09/10 05:04:55;;;;;;;;;;;21.90;51.50;;;;;;476643;250;1302;-73
2022/09/10 05:06:56;;;;;;;;;;;21.90;51.30;;;;;;476701;250;1132;-74
2022/09/10 05:08:57;;;;;;;;;;;21.90;51.50;;;;;;476638;250;1135;-73
2022/09/10 05:11:00;;;;;;;;;;;21.80;51.60;;;;;;477095;250;2208;-73
2022/09/10 05:13:01;;;;;;;;;;;21.80;51.60;;;;;;476815;250;1025;-73
2022/09/10 05:15:02;;;;;;;;;;;21.70;51.60;;;;;;476682;250;1091;-73
2022/09/10 05:17:04;;;;;;;;;;;21.80;51.60;;;;;;476685;250;1219;-73
2022/09/10 05:19:05;;;;;;;;;;;21.80;51.60;;;;;;476674;250;1108;-73
2022/09/10 05:21:07;;;;;;;;;;;21.80;51.60;;;;;;476674;250;1116;-73
2022/09/10 05:23:08;;;;;;;;;;;21.80;51.60;;;;;;476723;250;1119;-73
2022/09/10 05:25:09;;;;;;;;;;;21.90;51.50;;;;;;476788;250;1135;-73
2022/09/10 05:27:11;;;;;;;;;;;21.80;51.40;;;;;;476818;250;1190;-73
2022/09/10 05:29:12;;;;;;;;;;;21.80;51.50;;;;;;476632;250;1274;-73
2022/09/10 05:31:13;;;;;;;;;;;21.80;51.50;;;;;;476878;250;2192;-74
2022/09/10 05:33:15;;;;;;;;;;;21.80;51.40;;;;;;476955;250;1211;-73
2022/09/10 05:35:16;;;;;;;;;;;21.80;51.60;;;;;;476742;250;1139;-73
2022/09/10 05:37:17;;;;;;;;;;;21.80;51.60;;;;;;476657;250;1287;-73
2022/09/10 05:39:19;;;;;;;;;;;21.80;51.60;;;;;;476623;250;1304;-73
2022/09/10 05:41:20;;;;;;;;;;;21.70;51.50;;;;;;476635;250;1263;-73
2022/09/10 05:43:21;;;;;;;;;;;21.70;51.60;;;;;;476752;250;1134;-73
2022/09/10 05:45:23;;;;;;;;;;;21.70;51.50;;;;;;476777;250;1266;-73
2022/09/10 05:47:24;;;;;;;;;;;21.80;51.60;;;;;;476637;250;1130;-73
2022/09/10 05:49:25;;;;;;;;;;;21.80;51.60;;;;;;476969;250;2160;-73
2022/09/10 05:51:29;;;;;;;;;;;21.80;51.60;;;;;;476684;250;1324;-73
2022/09/10 05:53:28;;;;;;;;;;;21.80;51.60;;;;;;476543;250;1412;-74
2022/09/10 05:55:30;;;;;;;;;;;21.80;51.60;;;;;;476595;250;1237;-73
2022/09/10 05:57:31;;;;;;;;;;;21.80;51.60;;;;;;476844;250;1279;-73
2022/09/10 05:59:33;;;;;;;;;;;21.80;51.50;;;;;;476751;250;1169;-73
2022/09/10 06:01:34;;;;;;;;;;;21.80;51.60;;;;;;476678;250;1417;-73
2022/09/10 06:03:36;;;;;;;;;;;21.70;51.70;;;;;;476684;250;1177;-73
2022/09/10 06:05:36;;;;;;;;;;;21.80;51.70;;;;;;476808;250;1397;-73
2022/09/10 06:07:38;;;;;;;;;;;21.80;51.80;;;;;;476895;250;1212;-73
2022/09/10 06:09:39;;;;;;;;;;;21.80;51.80;;;;;;476701;250;2171;-73
2022/09/10 06:11:40;;;;;;;;;;;21.80;51.90;;;;;;476917;250;1295;-73
2022/09/10 06:13:42;;;;;;;;;;;21.80;52.00;;;;;;476672;250;1348;-73
2022/09/10 06:15:43;;;;;;;;;;;21.80;52.10;;;;;;476696;250;1306;-73
2022/09/10 06:17:44;;;;;;;;;;;21.80;52.20;;;;;;476745;250;1171;-73
2022/09/10 06:19:46;;;;;;;;;;;21.80;52.20;;;;;;476671;250;1217;-73
2022/09/10 06:21:47;;;;;;;;;;;21.70;52.30;;;;;;476679;250;1106;-73
2022/09/10 06:23:48;;;;;;;;;;;21.80;52.30;;;;;;476698;250;1112;-73
2022/09/10 06:25:50;;;;;;;;;;;21.80;52.20;;;;;;476697;250;1126;-73
2022/09/10 06:27:51;;;;;;;;;;;21.90;52.20;;;;;;476660;250;1077;-73
2022/09/10 06:29:52;;;;;;;;;;;21.80;52.20;;;;;;476704;250;2152;-73
2022/09/10 06:31:54;;;;;;;;;;;21.80;52.20;;;;;;476706;250;1181;-73
2022/09/10 06:33:55;;;;;;;;;;;21.80;52.30;;;;;;476800;250;1118;-73
2022/09/10 06:35:56;;;;;;;;;;;21.80;52.30;;;;;;477092;250;1246;-73
2022/09/10 06:37:58;;;;;;;;;;;21.80;52.40;;;;;;476692;250;1171;-73
2022/09/10 06:39:59;;;;;;;;;;;21.80;52.40;;;;;;476911;250;1181;-73
2022/09/10 06:42:00;;;;;;;;;;;21.80;52.40;;;;;;476650;250;1395;-73
2022/09/10 06:44:02;;;;;;;;;;;21.80;52.50;;;;;;477114;250;1234;-73
2022/09/10 06:46:04;;;;;;;;;;;21.80;52.60;;;;;;476663;250;1166;-73
2022/09/10 06:48:05;;;;;;;;;;;21.80;52.60;;;;;;476642;250;1160;-73
2022/09/10 06:50:06;;;;;;;;;;;21.80;52.60;;;;;;476937;250;2160;-73
2022/09/10 06:52:10;;;;;;;;;;;21.70;52.70;;;;;;476722;250;1275;-73
2022/09/10 06:54:09;;;;;;;;;;;21.70;52.80;;;;;;476957;250;1454;-73
2022/09/10 06:56:10;;;;;;;;;;;21.70;53.00;;;;;;476726;250;1142;-73
2022/09/10 06:58:12;;;;;;;;;;;21.70;53.00;;;;;;476694;250;1060;-73
2022/09/10 07:00:13;;;;;;;;;;;21.70;52.90;;;;;;476909;250;1057;-73
2022/09/10 07:02:15;;;;;;;;;;;21.70;53.00;;;;;;476675;250;1251;-73
2022/09/10 07:04:16;;;;;;;;;;;21.70;53.10;;;;;;477099;250;1077;-73
2022/09/10 07:06:18;;;;;;;;;;;21.70;53.10;;;;;;476980;250;1177;-73
2022/09/10 07:08:21;;;;;;;;;;;21.70;53.00;;;;;;476657;250;1467;-73
2022/09/10 07:10:20;;;;;;;;;;;21.70;52.90;;;;;;476553;250;2199;-73
2022/09/10 07:12:21;;;;;;;;;;;21.70;53.00;;;;;;476674;250;1271;-73
2022/09/10 07:14:23;;;;;;;;;;;21.70;53.00;;;;;;476825;250;1295;-73
2022/09/10 07:16:24;;;;;;;;;;;21.80;53.10;;;;;;476632;250;1281;-73
2022/09/10 07:18:25;;;;;;;;;;;21.70;53.10;;;;;;476792;250;1253;-73
2022/09/10 07:20:27;;;;;;;;;;;21.70;53.30;;;;;;476626;250;1327;-73
2022/09/10 07:22:28;;;;;;;;;;;21.70;53.30;;;;;;476672;250;1212;-74
2022/09/10 07:24:29;;;;;;;;;;;21.70;53.30;;;;;;476743;250;1205;-73
2022/09/10 07:26:31;;;;;;;;;;;21.70;53.20;;;;;;476673;250;1303;-73
2022/09/10 07:28:32;;;;;;;;;;;21.70;53.30;;;;;;476734;250;1238;-73
2022/09/10 07:30:34;;;;;;;;;;;21.70;53.40;;;;;;476614;250;2192;-73
2022/09/10 07:32:35;;;;;;;;;;;21.70;53.50;;;;;;476995;250;1478;-73
2022/09/10 07:34:37;;;;;;;;;;;21.70;53.30;;;;;;476677;250;1198;-73
2022/09/10 07:36:38;;;;;;;;;;;21.70;53.30;;;;;;476916;250;1208;-73
2022/09/10 07:38:40;;;;;;;;;;;21.70;53.30;;;;;;476685;250;1260;-73
2022/09/10 07:40:42;;;;;;;;;;;21.80;53.20;;;;;;476615;250;1243;-73
2022/09/10 07:42:43;;;;;;;;;;;21.90;53.00;;;;;;476689;250;1407;-74
2022/09/10 07:44:44;;;;;;;;;;;22.00;52.70;;;;;;476854;250;1272;-73
2022/09/10 07:46:45;;;;;;;;;;;22.10;52.60;;;;;;476783;250;1214;-73
2022/09/10 07:48:47;;;;;;;;;;;22.20;52.40;;;;;;476650;250;1247;-73
2022/09/10 07:50:49;;;;;;;;;;;22.20;52.20;;;;;;476683;250;2168;-73
2022/09/10 07:52:51;;;;;;;;;;;22.20;52.20;;;;;;476690;250;1254;-73
2022/09/10 07:54:51;;;;;;;;;;;22.20;52.20;;;;;;476553;250;1524;-73
2022/09/10 07:56:53;;;;;;;;;;;22.20;52.30;;;;;;476765;250;1202;-73
2022/09/10 07:58:56;;;;;;;;;;;22.20;52.30;;;;;;476689;250;1199;-73
2022/09/10 08:00:55;;;;;;;;;;;22.20;52.40;;;;;;476597;250;1409;-73
2022/09/10 08:02:57;;;;;;;;;;;22.10;52.50;;;;;;476684;250;1225;-73
2022/09/10 08:04:58;;;;;;;;;;;22.10;52.60;;;;;;476665;250;1166;-73
2022/09/10 08:06:59;;;;;;;;;;;22.10;52.80;;;;;;476706;250;1135;-73
2022/09/10 08:09:01;;;;;;;;;;;22.00;52.90;;;;;;476764;250;1351;-73
2022/09/10 08:11:02;;;;;;;;;;;21.90;53.10;;;;;;476628;250;2167;-73
2022/09/10 08:13:03;;;;;;;;;;;21.90;53.10;;;;;;476621;250;1202;-73
2022/09/10 08:15:05;;;;;;;;;;;21.90;53.30;;;;;;476632;250;1232;-73
2022/09/10 08:17:06;;;;;;;;;;;21.90;53.30;;;;;;476633;250;1216;-73
2022/09/10 08:19:07;;;;;;;;;;;21.90;53.30;;;;;;476620;250;1215;-73
2022/09/10 08:21:09;;;;;;;;;;;21.90;53.40;;;;;;476660;250;1226;-73
2022/09/10 08:23:10;;;;;;;;;;;21.90;53.50;;;;;;476980;250;1184;-73
2022/09/10 08:25:12;;;;;;;;;;;21.90;53.40;;;;;;476880;250;1285;-73
2022/09/10 08:27:13;;;;;;;;;;;21.90;53.30;;;;;;476884;250;1336;-73
2022/09/10 08:29:14;;;;;;;;;;;21.90;53.30;;;;;;476660;250;1287;-73
2022/09/10 08:31:16;;;;;;;;;;;21.90;53.30;;;;;;476630;250;2180;-73
2022/09/10 08:33:17;;;;;;;;;;;22.00;53.20;;;;;;476655;250;1448;-73
2022/09/10 08:35:18;;;;;;;;;;;22.00;53.20;;;;;;476699;250;1182;-73
2022/09/10 08:37:19;;;;;;;;;;;22.00;53.30;;;;;;476585;250;1186;-73
2022/09/10 08:39:21;;;;;;;;;;;21.90;53.40;;;;;;476674;250;1177;-73
2022/09/10 08:41:22;;;;;;;;;;;21.90;53.50;;;;;;476677;250;1295;-73
2022/09/10 08:43:24;;;;;;;;;;;21.90;53.60;;;;;;476874;250;1134;-73
2022/09/10 08:45:25;;;;;;;;;;;21.90;53.60;;;;;;476667;250;1081;-73
2022/09/10 08:47:26;;;;;;;;;;;21.90;53.60;;;;;;476960;250;1301;-73
2022/09/10 08:49:27;;;;;;;;;;;21.80;53.70;;;;;;476663;250;1243;-73
2022/09/10 08:51:29;;;;;;;;;;;21.80;53.80;;;;;;477090;250;2168;-73
2022/09/10 08:53:31;;;;;;;;;;;21.80;54.00;;;;;;476668;250;1421;-73
2022/09/10 08:55:31;;;;;;;;;;;21.80;54.00;;;;;;476561;250;1520;-73
2022/09/10 08:57:33;;;;;;;;;;;21.80;54.10;;;;;;476661;250;1135;-73
2022/09/10 08:59:34;;;;;;;;;;;21.80;54.10;;;;;;476695;250;1168;-73
2022/09/10 09:01:35;;;;;;;;;;;21.80;54.10;;;;;;476649;250;1164;-73
2022/09/10 09:03:37;;;;;;;;;;;21.80;54.10;;;;;;476814;250;1225;-73
2022/09/10 09:05:38;;;;;;;;;;;21.80;53.90;;;;;;476649;250;1144;-73
2022/09/10 09:07:39;;;;;;;;;;;21.90;53.90;;;;;;476638;250;1151;-73
2022/09/10 09:09:41;;;;;;;;;;;21.90;53.90;;;;;;476670;250;1178;-73
2022/09/10 09:11:42;;;;;;;;;;;21.90;53.90;;;;;;476641;250;2160;-73
2022/09/10 09:13:43;;;;;;;;;;;22.00;53.90;;;;;;476715;250;1271;-73
2022/09/10 09:15:48;;;;;;;;;;;22.00;53.70;;;;;;477058;250;1320;-73
2022/09/10 09:17:46;;;;;;;;;;;22.00;53.60;;;;;;476570;250;1417;-73
2022/09/10 09:19:48;;;;;;;;;;;22.10;53.60;;;;;;476714;250;1246;-73
2022/09/10 09:21:49;;;;;;;;;;;22.20;53.60;;;;;;476668;250;1226;-73
2022/09/10 09:23:51;;;;;;;;;;;22.20;53.40;;;;;;476754;250;1365;-73
2022/09/10 09:25:52;;;;;;;;;;;22.20;53.30;;;;;;476646;250;1244;-73
2022/09/10 09:27:54;;;;;;;;;;;22.30;53.40;;;;;;476665;250;1315;-74
2022/09/10 09:29:55;;;;;;;;;;;22.30;53.30;;;;;;476742;250;1199;-74
2022/09/10 09:31:57;;;;;;;;;;;22.30;53.30;;;;;;476701;250;2159;-73
2022/09/10 09:33:59;;;;;;;;;;;22.40;53.30;;;;;;476671;250;1126;-73
2022/09/10 09:35:59;;;;;;;;;;;22.40;53.40;;;;;;476780;250;1360;-73
2022/09/10 09:38:01;;;;;;;;;;;22.40;53.40;;;;;;476919;250;1105;-73
2022/09/10 09:40:04;;;;;;;;;;;22.50;53.30;;;;;;476613;250;1150;-73
2022/09/10 09:42:05;;;;;;;;;;;22.50;53.50;;;;;;476846;250;1538;-73
2022/09/10 09:44:06;;;;;;;;;;;22.50;53.60;;;;;;476755;250;1116;-73
2022/09/10 09:46:09;;;;;;;;;;;22.60;53.50;;;;;;476646;250;1366;-73
2022/09/10 09:48:09;;;;;;;;;;;22.60;53.50;;;;;;476563;250;1487;-73
2022/09/10 09:50:10;;;;;;;;;;;22.60;53.50;;;;;;476781;250;1239;-73
2022/09/10 09:52:13;;;;;;;;;;;22.60;53.50;;;;;;476929;250;2164;-73
2022/09/10 09:54:13;;;;;;;;;;;22.70;53.40;;;;;;476565;250;2014;-73
2022/09/10 09:56:14;;;;;;;;;;;22.60;53.40;;;;;;476719;250;1216;-73
2022/09/10 09:58:16;;;;;;;;;;;22.60;53.50;;;;;;476594;250;1293;-73
2022/09/10 10:00:17;;;;;;;;;;;22.60;53.40;;;;;;476739;250;1220;-74
2022/09/10 10:02:18;;;;;;;;;;;22.60;53.50;;;;;;477029;250;1275;-73
2022/09/10 10:04:20;;;;;;;;;;;22.60;53.60;;;;;;476824;250;1267;-73
2022/09/10 10:06:21;;;;;;;;;;;22.60;53.50;;;;;;476633;250;1210;-73
2022/09/10 10:08:23;;;;;;;;;;;22.60;53.50;;;;;;476738;250;1051;-73
2022/09/10 10:10:24;;;;;;;;;;;22.70;53.30;;;;;;476648;250;1212;-73
2022/09/10 10:12:25;;;;;;;;;;;22.70;53.20;;;;;;476936;250;2160;-73
2022/09/10 10:14:26;;;;;;;;;;;22.70;53.30;;;;;;476686;250;1146;-73
2022/09/10 10:16:28;;;;;;;;;;;22.60;53.50;;;;;;476687;250;1185;-73
2022/09/10 10:18:30;;;;;;;;;;;22.60;53.50;;;;;;476813;250;1432;-73
2022/09/10 10:20:31;;;;;;;;;;;22.60;53.30;;;;;;477032;250;1083;-73
2022/09/10 10:22:33;;;;;;;;;;;22.70;53.30;;;;;;477030;250;1102;-73
2022/09/10 10:24:34;;;;;;;;;;;22.70;53.20;;;;;;476888;250;1288;-73
2022/09/10 10:26:35;;;;;;;;;;;22.70;53.10;;;;;;476620;250;1242;-73
2022/09/10 10:28:37;;;;;;;;;;;22.70;53.00;;;;;;476973;250;1274;-73
2022/09/10 10:30:38;;;;;;;;;;;22.80;53.10;;;;;;476665;250;1092;-73
2022/09/10 10:32:39;;;;;;;;;;;22.70;53.20;;;;;;476882;250;2196;-73
2022/09/10 10:34:41;;;;;;;;;;;22.70;53.30;;;;;;476809;250;1329;-73
2022/09/10 10:36:42;;;;;;;;;;;22.70;53.20;;;;;;476610;250;1292;-73
2022/09/10 10:38:43;;;;;;;;;;;22.70;53.10;;;;;;476758;250;1304;-73
2022/09/10 10:40:45;;;;;;;;;;;22.70;53.10;;;;;;476657;250;1247;-73
2022/09/10 10:42:46;;;;;;;;;;;22.70;53.00;;;;;;476661;250;1166;-73
2022/09/10 10:44:48;;;;;;;;;;;22.70;52.90;;;;;;476643;250;1259;-73
2022/09/10 10:46:49;;;;;;;;;;;22.70;52.70;;;;;;476644;250;1270;-73
2022/09/10 10:48:50;;;;;;;;;;;22.70;52.70;;;;;;477034;250;1244;-73
2022/09/10 10:50:51;;;;;;;;;;;22.70;52.60;;;;;;476621;250;1213;-73
2022/09/10 10:52:53;;;;;;;;;;;22.70;52.70;;;;;;476596;250;2192;-73
2022/09/10 10:54:54;;;;;;;;;;;22.80;52.70;;;;;;476734;250;1348;-73
2022/09/10 10:56:55;;;;;;;;;;;22.70;52.80;;;;;;476633;250;1371;-73
2022/09/10 10:58:57;;;;;;;;;;;22.70;52.90;;;;;;476709;250;1331;-73
2022/09/10 11:00:58;;;;;;;;;;;22.70;52.80;;;;;;476679;250;1295;-73
2022/09/10 11:02:59;;;;;;;;;;;22.70;52.70;;;;;;476875;250;1178;-73
2022/09/10 11:05:01;;;;;;;;;;;22.80;52.70;;;;;;476667;250;1172;-73
2022/09/10 11:07:02;;;;;;;;;;;22.70;52.70;;;;;;476625;250;1245;-73
2022/09/10 11:09:03;;;;;;;;;;;22.70;52.80;;;;;;476635;250;1107;-74
2022/09/10 11:11:05;;;;;;;;;;;22.70;52.70;;;;;;476920;250;1150;-73
2022/09/10 11:13:07;;;;;;;;;;;22.70;52.60;;;;;;476661;250;2204;-74
2022/09/10 11:15:07;;;;;;;;;;;22.70;52.60;;;;;;476586;250;1406;-73
2022/09/10 11:17:09;;;;;;;;;;;22.80;52.60;;;;;;476653;250;1197;-73
2022/09/10 11:19:10;;;;;;;;;;;22.70;52.60;;;;;;476732;250;1200;-73
2022/09/10 11:21:11;;;;;;;;;;;22.70;52.70;;;;;;476687;250;1291;-73
2022/09/10 11:23:13;;;;;;;;;;;22.70;52.60;;;;;;476662;250;1276;-73
2022/09/10 11:25:15;;;;;;;;;;;22.70;52.60;;;;;;476726;250;1201;-73
2022/09/10 11:27:16;;;;;;;;;;;22.70;52.60;;;;;;476811;250;1222;-73
2022/09/10 11:29:17;;;;;;;;;;;22.70;52.50;;;;;;476680;250;1238;-73
2022/09/10 11:31:19;;;;;;;;;;;22.70;52.40;;;;;;476668;250;1112;-73
2022/09/10 11:33:22;;;;;;;;;;;22.70;52.30;;;;;;476626;250;2141;-73
2022/09/10 11:35:22;;;;;;;;;;;22.70;52.30;;;;;;476563;250;1429;-73
2022/09/10 11:37:23;;;;;;;;;;;22.70;52.30;;;;;;476642;250;1654;-73
2022/09/10 11:39:25;;;;;;;;;;;22.70;52.30;;;;;;476661;250;1234;-73
2022/09/10 11:41:26;;;;;;;;;;;22.70;52.40;;;;;;476552;250;1454;-74
2022/09/10 11:43:27;;;;;;;;;;;22.70;52.30;;;;;;476648;250;1265;-73
2022/09/10 11:45:28;;;;;;;;;;;22.80;52.30;;;;;;476713;250;1229;-73
2022/09/10 11:47:30;;;;;;;;;;;22.80;52.30;;;;;;476762;250;1283;-73
2022/09/10 11:49:31;;;;;;;;;;;22.80;52.30;;;;;;476632;250;1192;-73
2022/09/10 11:51:33;;;;;;;;;;;22.80;52.50;;;;;;476610;250;1266;-73
2022/09/10 11:53:35;;;;;;;;;;;22.70;52.60;;;;;;476649;250;2184;-73
2022/09/10 11:55:35;;;;;;;;;;;22.70;52.70;;;;;;476504;250;1549;-73
2022/09/10 11:57:37;;;;;;;;;;;22.70;52.70;;;;;;476930;250;1356;-73